Time;durP1;ratioP1;P1;durP2;ratioP2;P2;SDS_P1;SDS_P2;PMS_P1;PMS_P2;Temp;Humidity;BMP_temperature;BMP_pressure;BME280_temperature;BME280_humidity;BME280_pressure;Samples;Min_cycle;Max_cycle;Signal;HPM_P1;HPM_P2
2023/08/04 00:00:46;;;;;;;7.53;5.53;;;;;;;25.77;85.30;98609.31;5108559;28;20205;-63
2023/08/04 00:03:14;;;;;;;6.97;5.40;;;;;;;25.74;84.99;98607.97;5108214;28;20216;-63
2023/08/04 00:05:41;;;;;;;8.70;5.60;;;;;;;25.68;85.27;98602.78;5108179;28;20204;-63
2023/08/04 00:08:08;;;;;;;9.10;5.70;;;;;;;25.70;85.03;98592.91;5108137;28;20197;-63
2023/08/04 00:10:35;;;;;;;7.90;5.90;;;;;;;25.74;84.54;98591.41;5108305;28;20206;-63
2023/08/04 00:13:01;;;;;;;9.50;5.18;;;;;;;25.75;84.73;98588.59;5108368;28;20200;-63
2023/08/04 00:15:29;;;;;;;11.48;6.18;;;;;;;25.75;84.55;98593.03;5108118;28;20201;-63
2023/08/04 00:17:56;;;;;;;6.90;5.10;;;;;;;25.75;84.79;98593.84;5108112;28;20201;-63
2023/08/04 00:20:24;;;;;;;10.25;6.07;;;;;;;25.74;85.05;98591.41;5108041;28;20240;-63
2023/08/04 00:22:51;;;;;;;8.50;5.70;;;;;;;25.74;85.48;98587.00;5107984;28;20208;-63
2023/08/04 00:25:18;;;;;;;9.07;6.35;;;;;;;25.75;85.50;98587.81;5108124;28;20197;-63
2023/08/04 00:27:44;;;;;;;8.55;6.03;;;;;;;25.74;86.25;98587.00;5107807;28;20209;-63
2023/08/04 00:30:12;;;;;;;8.73;5.50;;;;;;;25.74;86.61;98586.19;5107949;28;20213;-63
2023/08/04 00:32:39;;;;;;;8.70;6.05;;;;;;;25.71;86.05;98579.59;5108242;28;20204;-63
2023/08/04 00:35:06;;;;;;;8.68;5.60;;;;;;;25.71;86.48;98581.41;5107715;28;20220;-63
2023/08/04 00:37:35;;;;;;;8.13;5.85;;;;;;;25.68;87.10;98582.63;5107967;28;20197;-63
2023/08/04 00:40:02;;;;;;;8.52;5.80;;;;;;;25.60;87.91;98579.53;5107700;28;20272;-63
2023/08/04 00:42:29;;;;;;;7.75;5.60;;;;;;;25.60;87.27;98579.53;5111595;28;20237;-63
2023/08/04 00:44:56;;;;;;;7.72;5.53;;;;;;;25.53;87.47;98580.41;5112052;28;20209;-63
2023/08/04 00:47:24;;;;;;;8.55;5.88;;;;;;;25.53;86.69;98585.63;5111693;28;20208;-63
2023/08/04 00:49:52;;;;;;;10.32;5.50;;;;;;;25.50;86.60;98578.22;5111470;28;20234;-63
2023/08/04 00:52:19;;;;;;;7.35;5.68;;;;;;;25.50;86.58;98580.84;5111971;28;20200;-63
2023/08/04 00:54:47;;;;;;;7.72;5.40;;;;;;;25.50;86.82;98577.44;5111427;28;20197;-63
2023/08/04 00:57:14;;;;;;;9.05;5.82;;;;;;;25.50;86.92;98580.03;5110775;28;20202;-63
2023/08/04 00:59:40;;;;;;;7.97;5.38;;;;;;;25.52;87.00;98581.44;5111102;28;20233;-63
2023/08/04 01:02:07;;;;;;;10.90;5.60;;;;;;;25.52;86.79;98578.81;5111958;28;20662;-63
2023/08/04 01:04:34;;;;;;;8.27;5.75;;;;;;;25.53;87.05;98579.59;5111908;28;20207;-63
2023/08/04 01:07:13;;;;;;;8.93;5.93;;;;;;;25.53;86.99;98580.41;5110969;28;20790;-63
2023/08/04 01:09:52;;;;;;;9.50;6.13;;;;;;;25.49;87.34;98579.25;5111426;28;20201;-63
2023/08/04 01:12:24;;;;;;;9.05;5.93;;;;;;;25.42;86.96;98578.50;5111553;28;20261;-63
2023/08/04 01:14:54;;;;;;;7.57;5.80;;;;;;;25.39;87.42;98578.97;5111241;28;20213;-63
2023/08/04 01:17:29;;;;;;;10.68;5.53;;;;;;;25.38;88.17;98577.38;5111301;28;20638;-63
2023/08/04 01:19:57;;;;;;;9.48;5.53;;;;;;;25.37;87.79;98581.00;5111044;28;20614;-63
2023/08/04 01:22:26;;;;;;;7.07;5.45;;;;;;;25.36;87.62;98584.63;5111325;28;20205;-63
2023/08/04 01:24:54;;;;;;;9.35;5.90;;;;;;;25.33;87.48;98574.59;5110959;28;20197;-63
2023/08/04 01:27:28;;;;;;;8.15;6.00;;;;;;;25.32;87.65;98572.22;5111416;28;20209;-63
2023/08/04 01:29:58;;;;;;;7.93;5.78;;;;;;;25.28;87.63;98583.13;5111508;28;20227;-63
2023/08/04 01:32:25;;;;;;;8.77;5.78;;;;;;;25.25;87.79;98574.91;5111089;28;20610;-63
2023/08/04 01:34:52;;;;;;;8.50;5.72;;;;;;;25.20;88.26;98580.00;5111119;28;20201;-63
2023/08/04 01:37:19;;;;;;;9.23;5.45;;;;;;;25.20;88.52;98574.75;5110974;28;20198;-63
2023/08/04 01:39:47;;;;;;;8.07;5.97;;;;;;;25.22;88.33;98580.56;5110586;28;20226;-63
2023/08/04 01:42:14;;;;;;;9.73;6.43;;;;;;;25.24;88.53;98587.19;5110817;28;20666;-63
2023/08/04 01:44:40;;;;;;;9.85;5.57;;;;;;;25.24;88.91;98591.63;5110634;28;20547;-63
2023/08/04 01:47:08;;;;;;;7.82;5.53;;;;;;;25.22;89.27;98591.03;5110832;28;20212;-63
2023/08/04 01:49:35;;;;;;;7.95;5.60;;;;;;;25.20;89.76;98593.09;5110566;28;20686;-63
2023/08/04 01:52:02;;;;;;;7.75;5.45;;;;;;;25.19;90.11;98588.84;5109861;28;20258;-63
2023/08/04 01:54:29;;;;;;;9.15;5.38;;;;;;;25.13;90.67;98592.31;5110498;28;20197;-63
2023/08/04 01:56:57;;;;;;;9.82;6.00;;;;;;;25.07;90.67;98591.34;5110501;28;20198;-63
2023/08/04 01:59:24;;;;;;;8.90;6.05;;;;;;;25.07;91.22;98586.13;5110403;28;20460;-63
2023/08/04 02:01:51;;;;;;;7.63;5.55;;;;;;;25.06;91.02;98595.78;5110340;28;20198;-63
2023/08/04 02:04:18;;;;;;;9.13;5.97;;;;;;;25.14;91.14;98593.94;5110304;28;20225;-63
2023/08/04 02:06:45;;;;;;;8.95;5.90;;;;;;;25.07;91.33;98592.16;5110492;28;20681;-63
2023/08/04 02:09:13;;;;;;;8.65;5.85;;;;;;;24.91;92.62;98592.72;5110248;28;20689;-63
2023/08/04 02:11:41;;;;;;;8.60;6.28;;;;;;;24.99;92.61;98589.03;5110297;28;20199;-63
2023/08/04 02:14:09;;;;;;;9.93;5.82;;;;;;;25.00;93.11;98596.66;5110204;28;20194;-63
2023/08/04 02:16:36;;;;;;;8.05;5.75;;;;;;;24.83;93.23;98595.59;5110349;28;20204;-63
2023/08/04 02:19:04;;;;;;;8.43;5.95;;;;;;;24.69;93.18;98604.56;5110178;28;20233;-63
2023/08/04 02:21:31;;;;;;;10.93;6.30;;;;;;;24.73;93.11;98606.56;5109907;28;20255;-63
2023/08/04 02:23:58;;;;;;;9.13;5.90;;;;;;;24.84;93.53;98602.44;5110014;28;20190;-63
2023/08/04 02:26:26;;;;;;;7.40;5.50;;;;;;;24.92;93.26;98599.53;5109929;28;20198;-63
2023/08/04 02:28:54;;;;;;;7.88;5.57;;;;;;;24.92;93.67;98599.53;5109691;28;20190;-63
2023/08/04 02:31:24;;;;;;;7.72;5.78;;;;;;;24.81;93.63;98605.47;5110074;28;20197;-63
2023/08/04 02:33:51;;;;;;;8.55;6.13;;;;;;;24.72;93.58;98615.41;5109710;28;20594;-63
2023/08/04 02:36:18;;;;;;;8.57;6.10;;;;;;;24.79;93.10;98612.75;5109821;28;20209;-63
2023/08/04 02:38:45;;;;;;;8.52;5.78;;;;;;;24.79;93.85;98617.97;5109377;28;20205;-63
2023/08/04 02:41:12;;;;;;;8.05;5.45;;;;;;;24.78;93.76;98608.50;5109769;28;20202;-63
2023/08/04 02:43:39;;;;;;;7.65;5.60;;;;;;;24.83;93.66;98606.06;5109766;28;20208;-63
2023/08/04 02:46:06;;;;;;;9.93;6.43;;;;;;;24.74;93.91;98607.34;5109899;28;20198;-63
2023/08/04 02:48:34;;;;;;;9.32;6.18;;;;;;;24.77;93.89;98609.53;5109112;28;20221;-63
2023/08/04 02:51:03;;;;;;;9.15;6.03;;;;;;;24.59;93.77;98607.69;5109551;28;20408;-63
2023/08/04 02:53:30;;;;;;;7.82;6.00;;;;;;;24.50;94.06;98609.75;5109420;28;20274;-63
2023/08/04 02:55:57;;;;;;;7.70;5.68;;;;;;;24.55;93.76;98611.72;5109638;28;20596;-63
2023/08/04 02:58:25;;;;;;;9.35;6.20;;;;;;;24.60;93.66;98606.66;5109252;28;20205;-63
2023/08/04 03:00:52;;;;;;;10.63;6.50;;;;;;;24.54;94.02;98603.06;5109036;28;20229;-63
2023/08/04 03:03:19;;;;;;;11.20;6.15;;;;;;;24.43;94.80;98603.75;5108869;28;20210;-63
2023/08/04 03:05:48;;;;;;;8.75;5.82;;;;;;;24.39;95.23;98605.19;5109095;28;20189;-63
2023/08/04 03:08:14;;;;;;;11.35;6.00;;;;;;;24.31;95.71;98614.06;5109236;28;20228;-63
2023/08/04 03:10:42;;;;;;;8.15;6.07;;;;;;;24.29;95.66;98605.66;5109063;28;20212;-63
2023/08/04 03:13:09;;;;;;;9.63;6.38;;;;;;;24.30;95.86;98609.06;5108921;28;20255;-63
2023/08/04 03:15:36;;;;;;;8.45;5.93;;;;;;;24.30;96.08;98612.47;5109197;28;20201;-63
2023/08/04 03:18:04;;;;;;;8.52;5.82;;;;;;;24.34;96.62;98612.84;5108717;28;20208;-63
2023/08/04 03:20:36;;;;;;;8.90;6.45;;;;;;;24.39;97.60;98618.25;5109014;28;20299;-63
2023/08/04 03:23:04;;;;;;;9.23;6.30;;;;;;;24.41;97.71;98613.63;5108986;28;20373;-63
2023/08/04 03:25:31;;;;;;;9.57;5.95;;;;;;;24.39;97.75;98613.03;5108720;28;20205;-63
2023/08/04 03:27:58;;;;;;;11.05;6.00;;;;;;;24.38;98.32;98624.50;5108665;28;20213;-63
2023/08/04 03:30:25;;;;;;;12.45;6.53;;;;;;;24.43;99.02;98622.06;5108862;28;20212;-63
2023/08/04 03:32:52;;;;;;;9.98;6.57;;;;;;;24.44;99.12;98623.69;5108697;28;20197;-63
2023/08/04 03:35:19;;;;;;;9.98;6.43;;;;;;;24.45;99.72;98627.88;5108535;28;20198;-63
2023/08/04 03:37:45;;;;;;;8.32;5.78;;;;;;;24.44;99.66;98622.88;5108730;28;20198;-63
2023/08/04 03:40:14;;;;;;;10.55;5.97;;;;;;;24.37;100.00;98628.09;5108717;28;20236;-63
2023/08/04 03:42:41;;;;;;;9.52;6.45;;;;;;;24.36;100.00;98632.53;5108598;28;20201;-63
2023/08/04 03:45:09;;;;;;;11.20;6.57;;;;;;;24.36;100.00;98631.72;5108789;28;20205;-63
2023/08/04 03:47:36;;;;;;;11.98;7.07;;;;;;;24.38;100.00;98625.28;5108423;28;20201;-63
2023/08/04 03:50:03;;;;;;;9.50;6.50;;;;;;;24.40;100.00;98623.28;5108438;28;20205;-63
2023/08/04 03:52:30;;;;;;;12.18;7.07;;;;;;;24.35;100.00;98625.72;5108461;28;20205;-63
2023/08/04 03:54:57;;;;;;;9.68;7.35;;;;;;;24.36;100.00;98626.50;5108149;28;20292;-63
2023/08/04 03:57:25;;;;;;;9.98;6.93;;;;;;;24.44;100.00;98623.69;5108512;28;20216;-63
2023/08/04 03:59:53;;;;;;;10.88;7.10;;;;;;;24.48;100.00;98627.44;5107959;28;20293;-63
2023/08/04 04:02:21;;;;;;;9.98;7.47;;;;;;;24.47;100.00;98628.47;5108167;28;20211;-63
2023/08/04 04:04:48;;;;;;;11.35;7.15;;;;;;;24.53;100.00;98627.63;5108077;28;20198;-63
2023/08/04 04:07:15;;;;;;;11.75;7.13;;;;;;;24.43;100.00;98627.28;5108001;28;20216;-63
2023/08/04 04:09:42;;;;;;;10.20;6.88;;;;;;;24.41;100.00;98624.06;5108196;28;20202;-63
2023/08/04 04:12:09;;;;;;;8.90;6.97;;;;;;;24.44;100.00;98623.69;5108153;28;20198;-63
2023/08/04 04:14:37;;;;;;;9.43;6.78;;;;;;;24.39;100.00;98620.84;5108335;28;20643;-63
2023/08/04 04:17:05;;;;;;;10.13;6.78;;;;;;;24.46;100.00;98626.06;5111290;28;20210;-63
2023/08/04 04:19:32;;;;;;;10.40;7.30;;;;;;;24.42;100.00;98630.88;5112485;28;20256;-63
2023/08/04 04:21:58;;;;;;;9.65;7.45;;;;;;;24.40;100.00;98622.44;5112187;28;20202;-63
2023/08/04 04:24:25;;;;;;;10.70;6.95;;;;;;;24.42;100.00;98627.47;5112366;28;20197;-63
2023/08/04 04:26:52;;;;;;;9.88;6.53;;;;;;;24.54;100.00;98639.66;5112057;28;20696;-63
2023/08/04 04:29:19;;;;;;;10.60;7.20;;;;;;;24.69;100.00;98630.72;5111980;28;20198;-63
2023/08/04 04:31:47;;;;;;;10.10;7.03;;;;;;;24.68;100.00;98640.38;5112163;28;20197;-63
2023/08/04 04:34:14;;;;;;;9.63;7.18;;;;;;;24.63;100.00;98638.41;5112057;28;20212;-63
2023/08/04 04:36:41;;;;;;;9.10;6.75;;;;;;;24.66;100.00;98641.59;5112183;28;20194;-63
2023/08/04 04:39:08;;;;;;;10.38;6.82;;;;;;;24.80;100.00;98643.91;5111818;28;20201;-64
2023/08/04 04:41:35;;;;;;;10.07;7.10;;;;;;;24.82;100.00;98635.84;5111803;28;20197;-63
2023/08/04 04:44:02;;;;;;;9.52;6.68;;;;;;;24.98;100.00;98640.53;5111976;28;20678;-63
2023/08/04 04:46:29;;;;;;;10.00;6.63;;;;;;;25.11;100.00;98646.69;5111737;28;20194;-63
2023/08/04 04:48:57;;;;;;;9.75;7.40;;;;;;;25.14;100.00;98649.69;5111629;28;20202;-63
2023/08/04 04:51:24;;;;;;;10.75;7.15;;;;;;;25.19;100.00;98646.41;5111704;28;20228;-63
2023/08/04 04:53:51;;;;;;;8.60;6.70;;;;;;;25.35;100.00;98650.28;5111570;27;20208;-63
2023/08/04 04:56:18;;;;;;;10.43;7.20;;;;;;;25.50;100.00;98653.34;5111854;28;20205;-63
2023/08/04 04:58:45;;;;;;;11.50;7.20;;;;;;;25.66;100.00;98654.59;5111519;28;20198;-63
2023/08/04 05:01:11;;;;;;;11.27;7.25;;;;;;;25.82;100.00;98646.16;5111494;28;20716;-63
2023/08/04 05:03:38;;;;;;;9.65;7.00;;;;;;;25.94;99.07;98657.47;5111381;28;20218;-63
2023/08/04 05:06:07;;;;;;;10.73;7.85;;;;;;;26.04;99.40;98654.34;5111319;28;20198;-63
2023/08/04 05:08:33;;;;;;;9.80;6.95;;;;;;;26.18;97.29;98649.75;5111343;28;20197;-63
2023/08/04 05:11:00;;;;;;;10.48;7.20;;;;;;;26.37;96.61;98661.75;5111535;28;20198;-63
2023/08/04 05:13:27;;;;;;;11.50;6.90;;;;;;;26.50;94.53;98663.44;5111360;28;20194;-63
2023/08/04 05:15:54;;;;;;;10.05;7.57;;;;;;;26.58;94.09;98664.91;5111095;28;20204;-63
2023/08/04 05:18:21;;;;;;;10.82;7.32;;;;;;;26.69;94.23;98664.13;5111145;28;20194;-63
2023/08/04 05:20:48;;;;;;;10.25;6.78;;;;;;;26.82;96.28;98673.59;5111171;28;20588;-63
2023/08/04 05:23:17;;;;;;;10.07;7.57;;;;;;;26.98;95.43;98669.53;5111139;28;20198;-63
2023/08/04 05:25:44;;;;;;;9.35;6.75;;;;;;;27.05;92.72;98671.03;5111024;28;20193;-63
2023/08/04 05:28:22;;;;;;;11.13;6.95;;;;;;;27.29;92.56;98665.81;5110965;28;20193;-63
2023/08/04 05:30:50;;;;;;;9.35;6.68;;;;;;;27.39;91.45;98670.47;5110920;28;20208;-63
2023/08/04 05:33:17;;;;;;;9.13;6.72;;;;;;;27.54;93.02;98668.16;5110895;28;20217;-63
2023/08/04 05:35:47;;;;;;;9.40;7.07;;;;;;;27.70;92.13;98675.31;5111127;28;20593;-63
2023/08/04 05:38:16;;;;;;;11.82;6.78;;;;;;;27.86;91.07;98675.66;5111260;27;20197;-64
2023/08/04 05:40:44;;;;;;;10.15;7.40;;;;;;;27.98;91.06;98679.03;5110672;28;20233;-64
2023/08/04 05:43:12;;;;;;;10.68;6.47;;;;;;;28.10;90.51;98676.34;5110594;28;20202;-64
2023/08/04 05:45:40;;;;;;;13.80;7.65;;;;;;;28.13;87.13;98671.44;5110746;28;20200;-63
2023/08/04 05:48:07;;;;;;;51.47;9.65;;;;;;;28.34;87.15;98677.06;5110757;28;20724;-64
2023/08/04 05:50:34;;;;;;;10.70;7.00;;;;;;;28.44;85.23;98687.78;5110292;28;20662;-63
2023/08/04 05:53:01;;;;;;;10.07;6.88;;;;;;;28.54;87.08;98687.97;5110745;28;20205;-63
2023/08/04 05:55:29;;;;;;;10.05;6.60;;;;;;;28.57;85.60;98684.84;5110566;28;20205;-63
2023/08/04 05:57:57;;;;;;;9.25;6.68;;;;;;;28.69;86.60;98684.00;5110560;27;20221;-63
2023/08/04 06:00:24;;;;;;;9.30;6.10;;;;;;;28.81;85.82;98695.25;5110367;28;20229;-64
2023/08/04 06:02:51;;;;;;;11.32;6.40;;;;;;;28.81;83.53;98698.66;5110118;28;20688;-64
2023/08/04 06:05:18;;;;;;;8.63;6.57;;;;;;;28.87;83.67;98694.28;5110200;28;20690;-63
2023/08/04 06:07:47;;;;;;;10.10;6.93;;;;;;;28.95;84.19;98699.16;5110181;28;20205;-64
2023/08/04 06:10:16;;;;;;;9.18;6.65;;;;;;;29.04;84.27;98692.47;5110312;28;20300;-63
2023/08/04 06:12:44;;;;;;;8.35;6.68;;;;;;;29.10;81.92;98696.75;5110151;28;20696;-63
2023/08/04 06:15:11;;;;;;;10.73;6.95;;;;;;;29.20;83.16;98695.31;5110123;28;20216;-63
2023/08/04 06:17:39;;;;;;;9.20;6.80;;;;;;;29.26;79.92;98699.63;5110205;28;20194;-64
2023/08/04 06:20:07;;;;;;;9.20;6.40;;;;;;;29.41;83.89;98699.84;5109938;28;20307;-64
2023/08/04 06:22:34;;;;;;;8.55;6.85;;;;;;;29.48;83.24;98703.09;5109911;28;20584;-64
2023/08/04 06:25:01;;;;;;;8.50;6.40;;;;;;;29.50;84.73;98692.31;5109900;28;20348;-64
2023/08/04 06:27:27;;;;;;;10.07;7.10;;;;;;;29.53;83.09;98697.09;5109847;28;20197;-64
2023/08/04 06:29:58;;;;;;;8.23;6.32;;;;;;;29.56;83.32;98689.50;5109717;28;20198;-64
2023/08/04 06:32:25;;;;;;;10.18;6.40;;;;;;;29.64;84.69;98690.13;5109989;28;20320;-64
2023/08/04 06:34:52;;;;;;;12.73;6.63;;;;;;;29.73;88.14;98689.47;5109760;28;20232;-64
2023/08/04 06:37:18;;;;;;;10.98;7.32;;;;;;;29.75;84.47;98692.66;5110036;28;20198;-64
2023/08/04 06:39:45;;;;;;;10.65;7.13;;;;;;;29.90;82.90;98694.66;5109074;28;20683;-64
2023/08/04 06:42:12;;;;;;;8.77;6.40;;;;;;;30.03;84.29;98698.78;5109613;28;20208;-64
2023/08/04 06:44:39;;;;;;;8.20;6.32;;;;;;;30.18;81.77;98685.75;5109712;28;20209;-64
2023/08/04 06:47:07;;;;;;;10.98;6.82;;;;;;;30.28;79.57;98695.63;5109528;28;20201;-64
2023/08/04 06:49:35;;;;;;;9.15;6.70;;;;;;;30.35;79.02;98696.22;5109260;28;20517;-63
2023/08/04 06:52:02;;;;;;;8.25;6.65;;;;;;;30.32;79.06;98691.44;5109341;28;20682;-64
2023/08/04 06:54:29;;;;;;;8.43;6.47;;;;;;;30.55;84.25;98692.19;5109491;28;20206;-64
2023/08/04 06:56:56;;;;;;;9.02;6.63;;;;;;;30.64;79.24;98693.31;5109332;28;20292;-64
2023/08/04 06:59:23;;;;;;;8.98;6.50;;;;;;;30.89;89.22;98696.19;5109149;28;20292;-64
2023/08/04 07:01:49;;;;;;;8.18;5.85;;;;;;;31.16;85.58;98700.59;5109101;28;20229;-64
2023/08/04 07:04:18;;;;;;;9.43;6.22;;;;;;;31.21;72.35;98703.25;5109111;27;20894;-64
2023/08/04 07:06:45;;;;;;;8.65;6.07;;;;;;;31.31;76.12;98703.31;5109010;28;20287;-64
2023/08/04 07:09:12;;;;;;;8.10;6.57;;;;;;;31.57;79.78;98700.84;5109185;28;20204;-64
2023/08/04 07:11:39;;;;;;;9.40;6.63;;;;;;;31.74;72.55;98704.09;5109405;28;20216;-63
2023/08/04 07:14:05;;;;;;;11.32;8.07;;;;;;;32.06;73.94;98697.06;5109408;28;20692;-63
2023/08/04 07:16:32;;;;;;;8.90;6.88;;;;;;;32.27;71.36;98708.50;5108959;28;20220;-63
2023/08/04 07:18:59;;;;;;;26.33;18.98;;;;;;;32.40;68.77;98705.34;5108748;28;20228;-64
2023/08/04 07:21:27;;;;;;;9.50;6.57;;;;;;;32.55;69.36;98702.75;5109024;28;20229;-64
2023/08/04 07:23:54;;;;;;;8.85;6.57;;;;;;;32.68;68.75;98704.84;5108744;28;20197;-65
2023/08/04 07:26:21;;;;;;;17.55;12.40;;;;;;;32.84;69.60;98707.50;5108762;28;20201;-65
2023/08/04 07:28:48;;;;;;;8.55;6.50;;;;;;;32.89;63.34;98710.94;5108665;28;20209;-64
2023/08/04 07:31:15;;;;;;;8.63;6.25;;;;;;;32.92;62.55;98707.75;5108722;28;20228;-65
2023/08/04 07:33:42;;;;;;;7.90;6.13;;;;;;;32.98;66.00;98713.84;5108623;28;20214;-64
2023/08/04 07:36:08;;;;;;;9.77;6.28;;;;;;;33.07;61.53;98709.63;5108761;28;20205;-63
2023/08/04 07:38:37;;;;;;;6.93;6.00;;;;;;;33.25;62.70;98705.63;5108609;28;20209;-65
2023/08/04 07:41:03;;;;;;;8.00;6.57;;;;;;;33.51;65.42;98706.38;5108363;28;20244;-64
2023/08/04 07:43:30;;;;;;;7.88;6.20;;;;;;;33.70;62.67;98708.44;5108492;28;20201;-66
2023/08/04 07:45:57;;;;;;;8.00;6.55;;;;;;;33.87;64.29;98708.88;5108410;28;20316;-64
2023/08/04 07:48:24;;;;;;;7.68;6.22;;;;;;;34.00;60.80;98712.78;5108352;28;20197;-64
2023/08/04 07:50:52;;;;;;;10.93;6.40;;;;;;;34.10;58.61;98711.97;5107431;28;20198;-64
2023/08/04 07:53:20;;;;;;;9.55;6.20;;;;;;;34.25;55.46;98709.22;5108464;28;20205;-62
2023/08/04 07:55:56;;;;;;;8.55;6.15;;;;;;;34.44;65.74;98706.69;5108551;28;20197;-65
2023/08/04 07:58:23;;;;;;;7.95;6.03;;;;;;;34.39;59.50;98710.19;5108555;28;20578;-65
2023/08/04 08:00:50;;;;;;;10.60;6.85;;;;;;;34.49;59.13;98712.75;5108230;28;20327;-66
2023/08/04 08:03:17;;;;;;;7.82;6.38;;;;;;;34.79;70.76;98708.31;5108216;28;20217;-65
2023/08/04 08:05:44;;;;;;;7.38;6.43;;;;;;;34.83;59.00;98705.91;5108213;28;20212;-65
2023/08/04 08:08:11;;;;;;;8.80;6.05;;;;;;;34.90;58.52;98709.00;5108176;28;20201;-65
2023/08/04 08:10:38;;;;;;;7.65;6.53;;;;;;;35.06;58.53;98712.34;5108264;28;20514;-66
2023/08/04 08:13:07;;;;;;;7.55;6.22;;;;;;;35.29;57.30;98714.25;5108177;28;20197;-65
2023/08/04 08:15:35;;;;;;;7.47;6.03;;;;;;;35.36;52.04;98709.38;5107310;28;20198;-66
2023/08/04 08:18:02;;;;;;;9.10;6.70;;;;;;;35.63;62.85;98710.69;5107669;28;20203;-65
2023/08/04 08:20:30;;;;;;;8.48;6.28;;;;;;;35.76;54.03;98715.31;5108205;28;20216;-66
2023/08/04 08:22:57;;;;;;;7.22;6.25;;;;;;;36.02;59.49;98715.78;5107381;28;20228;-65
2023/08/04 08:25:24;;;;;;;8.20;6.30;;;;;;;36.13;53.46;98719.13;5107944;28;20201;-65
2023/08/04 08:27:52;;;;;;;7.57;6.50;;;;;;;36.09;48.92;98722.63;5107768;28;20619;-66
2023/08/04 08:30:20;;;;;;;7.75;6.03;;;;;;;36.01;50.30;98722.19;5108050;28;20209;-66
2023/08/04 08:32:47;;;;;;;9.70;6.50;;;;;;;36.12;51.95;98716.72;5107875;28;20208;-66
2023/08/04 08:35:14;;;;;;;7.43;6.15;;;;;;;36.35;57.11;98709.75;5108107;28;20455;-66
2023/08/04 08:37:40;;;;;;;7.55;6.30;;;;;;;36.44;48.41;98719.44;5108112;28;20204;-66
2023/08/04 08:40:08;;;;;;;8.85;5.95;;;;;;;36.40;52.58;98718.44;5108264;28;20206;-66
2023/08/04 08:42:35;;;;;;;6.20;5.60;;;;;;;36.35;47.88;98717.72;5107710;28;20494;-65
2023/08/04 08:45:02;;;;;;;6.60;5.53;;;;;;;36.46;48.71;98711.16;5106466;28;20209;-65
2023/08/04 08:47:35;;;;;;;7.25;5.90;;;;;;;36.61;46.99;98713.63;5107654;28;20201;-65
2023/08/04 08:50:03;;;;;;;7.28;5.40;;;;;;;36.82;48.17;98707.94;5107643;28;20221;-65
2023/08/04 08:52:32;;;;;;;6.78;5.57;;;;;;;36.88;46.71;98712.09;5107700;28;20204;-66
2023/08/04 08:55:00;;;;;;;5.85;5.22;;;;;;;36.99;46.71;98705.50;5107740;28;20209;-65
2023/08/04 08:57:27;;;;;;;6.32;5.40;;;;;;;36.96;43.28;98713.31;5107717;28;20190;-66
2023/08/04 08:59:57;;;;;;;5.78;5.18;;;;;;;37.12;46.16;98702.09;5107929;28;20193;-65
2023/08/04 09:02:24;;;;;;;6.82;5.75;;;;;;;37.06;41.62;98697.97;5109484;28;20236;-66
2023/08/04 09:04:53;;;;;;;7.75;5.68;;;;;;;37.26;46.55;98696.75;5111116;28;20201;-66
2023/08/04 09:07:22;;;;;;;6.57;5.20;;;;;;;37.35;43.60;98697.69;5111367;28;20233;-66
2023/08/04 09:09:49;;;;;;;6.20;5.13;;;;;;;37.43;43.93;98696.16;5111304;28;20213;-65
2023/08/04 09:12:16;;;;;;;6.10;5.35;;;;;;;37.52;43.65;98697.06;5111432;28;20208;-66
2023/08/04 09:14:51;;;;;;;7.10;5.50;;;;;;;37.68;44.61;98686.91;5111529;28;20694;-66
2023/08/04 09:17:35;;;;;;;6.38;5.05;;;;;;;37.78;41.25;98696.56;5111336;28;20199;-66
2023/08/04 09:20:05;;;;;;;6.25;5.30;;;;;;;37.71;38.05;98696.19;5111159;28;20594;-65
2023/08/04 09:22:35;;;;;;;6.32;5.18;;;;;;;37.66;43.21;98691.72;5111166;28;20244;-65
2023/08/04 09:25:03;;;;;;;7.63;5.32;;;;;;;37.92;40.30;98691.97;5111052;28;20193;-66
2023/08/04 09:27:33;;;;;;;5.90;5.18;;;;;;;37.94;38.06;98694.38;5111239;28;20201;-66
2023/08/04 09:30:01;;;;;;;5.55;4.93;;;;;;;38.20;40.90;98691.94;5111103;28;20677;-66
2023/08/04 09:32:28;;;;;;;6.55;5.57;;;;;;;38.02;39.98;98686.44;5111110;28;20208;-66
2023/08/04 09:35:05;;;;;;;6.43;5.70;;;;;;;38.26;43.90;98690.72;5110731;28;20217;-66
2023/08/04 09:37:33;;;;;;;6.63;5.90;;;;;;;38.43;46.16;98688.19;5110995;28;20196;-66
2023/08/04 09:40:01;;;;;;;7.82;6.60;;;;;;;38.57;46.87;98679.31;5111041;28;20197;-66
2023/08/04 09:42:28;;;;;;;8.02;6.20;;;;;;;38.64;46.64;98680.44;5110865;28;20294;-66
2023/08/04 09:44:55;;;;;;;9.43;5.90;;;;;;;38.76;48.85;98677.22;5111057;28;20262;-66
2023/08/04 09:47:23;;;;;;;8.38;6.20;;;;;;;38.80;41.62;98680.84;5110748;28;20284;-66
2023/08/04 09:49:51;;;;;;;7.07;6.25;;;;;;;39.09;49.53;98668.88;5110638;28;20201;-66
2023/08/04 09:52:23;;;;;;;7.32;6.32;;;;;;;39.13;42.39;98675.19;5110583;27;20193;-66
2023/08/04 09:54:52;;;;;;;6.68;5.97;;;;;;;39.23;49.31;98664.22;5110560;28;20200;-66
2023/08/04 09:57:19;;;;;;;8.23;6.38;;;;;;;39.33;44.43;98674.66;5110765;28;20204;-66
2023/08/04 09:59:48;;;;;;;7.53;6.55;;;;;;;39.44;46.60;98667.13;5110401;28;20201;-66
2023/08/04 10:02:17;;;;;;;9.27;6.13;;;;;;;39.24;40.95;98665.78;5110405;28;20228;-66
2023/08/04 10:04:51;;;;;;;9.05;6.57;;;;;;;39.37;47.81;98664.91;5110656;28;20224;-65
2023/08/04 10:07:19;;;;;;;7.25;6.43;;;;;;;39.43;44.09;98668.22;5110366;28;20205;-66
2023/08/04 10:09:48;;;;;;;7.80;5.85;;;;;;;38.78;39.71;98669.69;5110358;28;20192;-66
2023/08/04 10:12:17;;;;;;;6.97;6.28;;;;;;;38.81;42.72;98663.72;5110389;28;20200;-65
2023/08/04 10:14:44;;;;;;;6.65;5.97;;;;;;;39.06;42.56;98664.16;5109443;28;20197;-66
2023/08/04 10:17:12;;;;;;;8.15;6.68;;;;;;;39.26;45.25;98668.94;5110253;28;20208;-66
2023/08/04 10:19:38;;;;;;;7.78;6.35;;;;;;;39.19;41.60;98665.94;5110315;28;20217;-66
2023/08/04 10:22:08;;;;;;;6.72;6.03;;;;;;;39.41;41.04;98669.63;5110089;28;20224;-66
2023/08/04 10:24:36;;;;;;;6.80;5.82;;;;;;;39.29;40.57;98662.19;5110115;27;20197;-66
2023/08/04 10:27:15;;;;;;;7.07;6.00;;;;;;;39.49;44.05;98655.50;5109882;28;20641;-66
2023/08/04 10:29:42;;;;;;;7.13;5.95;;;;;;;39.75;40.75;98661.69;5110011;28;20356;-66
2023/08/04 10:32:09;;;;;;;7.65;6.45;;;;;;;39.85;41.50;98660.56;5110056;28;20699;-66
2023/08/04 10:34:38;;;;;;;7.82;6.25;;;;;;;39.76;41.04;98654.44;5110003;28;20200;-66
2023/08/04 10:37:09;;;;;;;7.80;6.57;;;;;;;39.76;40.08;98655.22;5109997;28;20193;-66
2023/08/04 10:39:38;;;;;;;6.65;5.93;;;;;;;39.81;43.06;98657.75;5109733;28;20287;-66
2023/08/04 10:42:07;;;;;;;6.78;6.07;;;;;;;39.82;40.48;98656.63;5109662;28;20238;-66
2023/08/04 10:44:55;;;;;;;7.78;6.15;;;;;;;39.77;40.86;98651.47;5109636;28;20266;-66
2023/08/04 10:47:42;;;;;;;7.20;5.97;;;;;;;39.80;41.70;98656.19;5109474;28;20188;-66
2023/08/04 10:50:09;;;;;;;7.70;6.25;;;;;;;39.84;40.47;98657.13;5109827;28;20358;-66
2023/08/04 10:52:38;;;;;;;6.78;6.05;;;;;;;40.01;45.54;98639.47;5109358;28;20193;-64
2023/08/04 10:55:06;;;;;;;7.32;6.40;;;;;;;39.89;40.65;98644.69;5109339;28;20586;-65
2023/08/04 10:57:34;;;;;;;7.72;6.50;;;;;;;39.97;41.41;98646.56;5109434;28;20208;-66
2023/08/04 11:00:05;;;;;;;7.10;6.20;;;;;;;39.90;39.58;98643.59;5109262;28;20204;-66
2023/08/04 11:02:33;;;;;;;7.25;6.07;;;;;;;39.97;37.09;98646.56;5109257;28;20229;-66
2023/08/04 11:05:00;;;;;;;7.38;6.55;;;;;;;39.78;36.95;98641.53;5109278;28;20303;-66
2023/08/04 11:07:27;;;;;;;7.55;6.15;;;;;;;39.95;39.73;98636.19;5109144;28;20192;-66
2023/08/04 11:09:55;;;;;;;7.43;6.57;;;;;;;40.03;36.76;98629.25;5109087;28;20197;-66
2023/08/04 11:12:22;;;;;;;8.35;6.20;;;;;;;40.11;37.88;98628.44;5109145;28;20200;-66
2023/08/04 11:14:49;;;;;;;7.97;6.68;;;;;;;39.94;37.47;98623.09;5109009;28;20196;-66
2023/08/04 11:17:19;;;;;;;7.50;6.32;;;;;;;40.01;39.17;98628.78;5108872;27;20591;-66
2023/08/04 11:19:48;;;;;;;6.68;5.72;;;;;;;39.99;35.36;98622.94;5109143;28;20428;-66
2023/08/04 11:22:16;;;;;;;7.60;6.40;;;;;;;39.83;34.96;98628.00;5108856;28;20252;-66
2023/08/04 11:24:44;;;;;;;8.52;6.55;;;;;;;39.90;35.43;98624.84;5108801;28;20200;-66
2023/08/04 11:27:13;;;;;;;7.80;6.15;;;;;;;39.88;40.36;98619.00;5108755;28;20193;-66
2023/08/04 11:29:40;;;;;;;7.13;6.28;;;;;;;39.93;36.81;98616.97;5108947;28;20207;-66
2023/08/04 11:32:11;;;;;;;7.97;6.68;;;;;;;39.81;39.60;98611.47;5108679;28;20208;-66
2023/08/04 11:34:41;;;;;;;7.35;6.13;;;;;;;39.98;39.37;98616.03;5108734;28;20201;-66